Orbital elements of CZ-4 DEB
| Launched | 18 September 2007 |
| Flight ended | – |
| Launch site | Taiyuan Space Center, PRC |
| Owner | People's Republic of China |
| NORAD ID | 32473 |
| Date fetched |
Epoch osculation |
Inc. [°] |
Ecc. | RA asc node [hr] |
Arg Peri. [°] |
Mean anom [°] |
Mean motion [rev/day] |
Abs. mag |
| Date fetched |
Epoch osculation |
Inc. [°] |
Ecc. | RA asc node [hr] |
Arg Peri. [°] |
Mean anom [°] |
Mean motion [rev/day] |
Abs. mag |
| 2026 May 08 17:57 | 2026 May 05 11:15:23 | 97.9566 | 0.00875 | 9.0131 | 8.5556 | 351.7114 | 14.62874 | – |
| 2026 May 07 17:58 | 2026 May 05 11:15:23 | 97.9566 | 0.00875 | 9.0131 | 8.5556 | 351.7114 | 14.62874 | – |
| 2026 May 06 17:57 | 2026 May 05 11:15:23 | 97.9566 | 0.00875 | 9.0131 | 8.5556 | 351.7114 | 14.62874 | – |
| 2026 May 05 17:57 | 2026 May 05 11:15:23 | 97.9566 | 0.00875 | 9.0131 | 8.5556 | 351.7114 | 14.62874 | – |
| 2026 May 04 17:57 | 2026 Apr 30 11:25:11 | 97.9563 | 0.00881 | 8.6919 | 24.2381 | 351.7114 | 14.62874 | – |
| 2026 May 03 17:57 | 2026 Apr 30 11:25:11 | 97.9563 | 0.00881 | 8.6919 | 24.2381 | 351.7114 | 14.62874 | – |
| 2026 May 02 17:57 | 2026 Apr 30 11:25:11 | 97.9563 | 0.00881 | 8.6919 | 24.2381 | 351.7114 | 14.62874 | – |
| 2026 May 01 17:56 | 2026 Apr 30 11:25:11 | 97.9563 | 0.00881 | 8.6919 | 24.2381 | 351.7114 | 14.62874 | – |
| 2026 Apr 30 17:56 | 2026 Apr 30 11:25:11 | 97.9563 | 0.00881 | 8.6919 | 24.2381 | 351.7114 | 14.62874 | – |
| 2026 Apr 29 17:57 | 2026 Apr 23 23:27:45 | 97.9575 | 0.00887 | 8.2741 | 44.5032 | 351.7114 | 14.62874 | – |
| 2026 Apr 28 17:56 | 2026 Apr 23 23:27:45 | 97.9575 | 0.00887 | 8.2741 | 44.5032 | 351.7114 | 14.62874 | – |
| 2026 Apr 27 17:58 | 2026 Apr 23 23:27:45 | 97.9575 | 0.00887 | 8.2741 | 44.5032 | 351.7114 | 14.62874 | – |
| 2026 Apr 26 17:58 | 2026 Apr 23 23:27:45 | 97.9575 | 0.00887 | 8.2741 | 44.5032 | 351.7114 | 14.62874 | – |
| 2026 Apr 25 17:58 | 2026 Apr 23 23:27:45 | 97.9575 | 0.00887 | 8.2741 | 44.5032 | 351.7114 | 14.62874 | – |
| 2026 Apr 24 17:59 | 2026 Apr 23 23:27:45 | 97.9575 | 0.00887 | 8.2741 | 44.5032 | 351.7114 | 14.62874 | – |
| 2026 Apr 23 17:57 | 2026 Apr 19 06:11:06 | 97.9574 | 0.00890 | 7.9706 | 59.1388 | 351.7114 | 14.62874 | – |
| 2026 Apr 22 17:57 | 2026 Apr 19 06:11:06 | 97.9574 | 0.00890 | 7.9706 | 59.1388 | 351.7114 | 14.62874 | – |
| 2026 Apr 21 17:57 | 2026 Apr 19 06:11:06 | 97.9574 | 0.00890 | 7.9706 | 59.1388 | 351.7114 | 14.62874 | – |
| 2026 Apr 20 17:57 | 2026 Apr 19 06:11:06 | 97.9574 | 0.00890 | 7.9706 | 59.1388 | 351.7114 | 14.62874 | – |
| 2026 Apr 19 17:58 | 2026 Apr 19 06:11:06 | 97.9574 | 0.00890 | 7.9706 | 59.1388 | 351.7114 | 14.62874 | – |
| 2026 Apr 18 17:56 | 2026 Apr 12 18:13:11 | 97.9581 | 0.00893 | 7.5528 | 79.2835 | 351.7114 | 14.62874 | – |
| 2026 Apr 16 17:57 | 2026 Apr 12 18:13:11 | 97.9581 | 0.00893 | 7.5528 | 79.2835 | 351.7114 | 14.62874 | – |
| 2026 Apr 14 17:57 | 2026 Apr 12 18:13:11 | 97.9581 | 0.00893 | 7.5528 | 79.2835 | 351.7114 | 14.62874 | – |
| 2026 Apr 13 17:57 | 2026 Apr 12 18:13:11 | 97.9581 | 0.00893 | 7.5528 | 79.2835 | 351.7114 | 14.62874 | – |
| 2026 Apr 12 17:57 | 2026 Apr 07 23:17:44 | 97.9587 | 0.00893 | 7.2449 | 94.1034 | 351.7114 | 14.62874 | – |
| 2026 Apr 11 17:57 | 2026 Apr 07 23:17:44 | 97.9587 | 0.00893 | 7.2449 | 94.1034 | 351.7114 | 14.62874 | – |